Brainerd, Minnesota
Current Conditions -  °F | °C
As of 11:53 AM on Friday 21 Nov 2014 (Local Time) from KBRD Reporting Station
Clear Clear  
Wind Chill:   Ceiling: Unl
Heat Index: 22°   Visibility: 8mi
Dew Point: 15°   Wind: 17mph
Humidity: 75%   Direction: 190°S
Pressure: 29.95"   Gusts: 28mph
Location:  46.35°N, 94.2°W
Report Text: KBRD 211753Z AUTO 19015G24KT 8SM CLR M06/M09 A2995 RMK AO2 PK WND 18027/1732 SLP172 T10561094 11056 21144 58023
Loading
Personal Weather Stations






























Interactive Weather Map New forecast layout! Learn more

10-Day Weather Forecast

Advertisements
Track Severe Weather on mobile